sensor_id;sensor_type;location;lat;lon;timestamp;P1;durP1;ratioP1;P2;durP2;ratioP2
665;SDS011;315;48.738;9.126;2023-04-03T00:01:06;3.97;;;3.60;;
665;SDS011;315;48.738;9.126;2023-04-03T00:03:32;3.30;;;3.10;;
665;SDS011;315;48.738;9.126;2023-04-03T00:05:58;5.17;;;3.50;;
665;SDS011;315;48.738;9.126;2023-04-03T00:08:23;4.10;;;3.70;;
665;SDS011;315;48.738;9.126;2023-04-03T00:10:49;4.30;;;4.00;;
665;SDS011;315;48.738;9.126;2023-04-03T00:13:15;3.80;;;3.50;;
665;SDS011;315;48.738;9.126;2023-04-03T00:15:40;3.97;;;3.57;;
665;SDS011;315;48.738;9.126;2023-04-03T00:18:06;4.10;;;3.80;;
665;SDS011;315;48.738;9.126;2023-04-03T00:20:32;5.13;;;4.17;;
665;SDS011;315;48.738;9.126;2023-04-03T00:22:58;5.17;;;4.37;;
665;SDS011;315;48.738;9.126;2023-04-03T00:25:24;3.90;;;3.50;;
665;SDS011;315;48.738;9.126;2023-04-03T00:27:49;5.53;;;3.63;;
665;SDS011;315;48.738;9.126;2023-04-03T00:30:16;3.57;;;3.33;;
665;SDS011;315;48.738;9.126;2023-04-03T00:32:43;6.17;;;4.17;;
665;SDS011;315;48.738;9.126;2023-04-03T00:35:08;3.90;;;3.60;;
665;SDS011;315;48.738;9.126;2023-04-03T00:37:35;3.93;;;3.30;;
665;SDS011;315;48.738;9.126;2023-04-03T00:40:01;6.93;;;4.20;;
665;SDS011;315;48.738;9.126;2023-04-03T00:42:27;4.77;;;4.37;;
665;SDS011;315;48.738;9.126;2023-04-03T00:47:22;3.77;;;3.47;;
665;SDS011;315;48.738;9.126;2023-04-03T00:49:49;5.40;;;3.80;;
665;SDS011;315;48.738;9.126;2023-04-03T00:52:16;4.37;;;3.97;;
665;SDS011;315;48.738;9.126;2023-04-03T00:54:45;4.03;;;3.73;;
665;SDS011;315;48.738;9.126;2023-04-03T00:57:12;4.83;;;4.20;;
665;SDS011;315;48.738;9.126;2023-04-03T00:59:39;4.77;;;4.20;;
665;SDS011;315;48.738;9.126;2023-04-03T01:02:13;3.83;;;3.53;;
665;SDS011;315;48.738;9.126;2023-04-03T01:04:39;3.90;;;3.50;;
665;SDS011;315;48.738;9.126;2023-04-03T01:07:07;5.83;;;3.83;;
665;SDS011;315;48.738;9.126;2023-04-03T01:09:46;3.40;;;3.10;;
665;SDS011;315;48.738;9.126;2023-04-03T01:12:16;5.73;;;3.70;;
665;SDS011;315;48.738;9.126;2023-04-03T01:14:48;5.53;;;4.00;;
665;SDS011;315;48.738;9.126;2023-04-03T01:17:32;4.20;;;3.90;;
665;SDS011;315;48.738;9.126;2023-04-03T01:22:33;5.30;;;3.33;;
665;SDS011;315;48.738;9.126;2023-04-03T01:25:15;3.57;;;3.27;;
665;SDS011;315;48.738;9.126;2023-04-03T01:27:40;4.57;;;3.80;;
665;SDS011;315;48.738;9.126;2023-04-03T01:30:06;4.20;;;3.90;;
665;SDS011;315;48.738;9.126;2023-04-03T01:32:32;4.13;;;3.70;;
665;SDS011;315;48.738;9.126;2023-04-03T01:34:58;3.83;;;3.47;;
665;SDS011;315;48.738;9.126;2023-04-03T01:37:23;4.63;;;3.90;;
665;SDS011;315;48.738;9.126;2023-04-03T01:39:49;4.20;;;3.80;;
665;SDS011;315;48.738;9.126;2023-04-03T01:42:14;4.53;;;4.13;;
665;SDS011;315;48.738;9.126;2023-04-03T01:44:40;3.90;;;3.60;;
665;SDS011;315;48.738;9.126;2023-04-03T01:47:06;4.00;;;3.70;;
665;SDS011;315;48.738;9.126;2023-04-03T01:49:32;4.67;;;4.23;;
665;SDS011;315;48.738;9.126;2023-04-03T01:51:58;4.40;;;4.00;;
665;SDS011;315;48.738;9.126;2023-04-03T01:54:23;4.90;;;4.50;;
665;SDS011;315;48.738;9.126;2023-04-03T01:56:49;5.87;;;4.87;;
665;SDS011;315;48.738;9.126;2023-04-03T01:59:14;4.83;;;4.43;;
665;SDS011;315;48.738;9.126;2023-04-03T02:01:41;4.00;;;3.60;;
665;SDS011;315;48.738;9.126;2023-04-03T02:04:08;5.07;;;4.40;;
665;SDS011;315;48.738;9.126;2023-04-03T02:06:34;3.63;;;3.33;;
665;SDS011;315;48.738;9.126;2023-04-03T02:08:59;3.60;;;3.30;;
665;SDS011;315;48.738;9.126;2023-04-03T02:11:25;4.23;;;3.47;;
665;SDS011;315;48.738;9.126;2023-04-03T02:13:50;3.77;;;3.47;;
665;SDS011;315;48.738;9.126;2023-04-03T02:16:16;4.93;;;4.03;;
665;SDS011;315;48.738;9.126;2023-04-03T02:18:41;4.40;;;3.67;;
665;SDS011;315;48.738;9.126;2023-04-03T02:21:07;4.33;;;3.90;;
665;SDS011;315;48.738;9.126;2023-04-03T02:23:33;4.03;;;3.67;;
665;SDS011;315;48.738;9.126;2023-04-03T02:26:08;4.60;;;4.20;;
665;SDS011;315;48.738;9.126;2023-04-03T02:28:35;3.87;;;3.57;;
665;SDS011;315;48.738;9.126;2023-04-03T02:31:01;5.13;;;4.00;;
665;SDS011;315;48.738;9.126;2023-04-03T02:33:28;4.10;;;3.80;;
665;SDS011;315;48.738;9.126;2023-04-03T02:35:54;6.57;;;3.87;;
665;SDS011;315;48.738;9.126;2023-04-03T02:38:20;4.00;;;3.70;;
665;SDS011;315;48.738;9.126;2023-04-03T02:40:47;4.43;;;4.10;;
665;SDS011;315;48.738;9.126;2023-04-03T02:43:12;4.10;;;3.80;;
665;SDS011;315;48.738;9.126;2023-04-03T02:45:38;6.20;;;5.10;;
665;SDS011;315;48.738;9.126;2023-04-03T02:48:03;6.47;;;4.90;;
665;SDS011;315;48.738;9.126;2023-04-03T02:50:29;3.93;;;3.40;;
665;SDS011;315;48.738;9.126;2023-04-03T02:52:55;4.40;;;3.23;;
665;SDS011;315;48.738;9.126;2023-04-03T02:55:20;3.73;;;3.43;;
665;SDS011;315;48.738;9.126;2023-04-03T02:57:46;4.73;;;4.10;;
665;SDS011;315;48.738;9.126;2023-04-03T03:00:12;4.10;;;3.63;;
665;SDS011;315;48.738;9.126;2023-04-03T03:02:37;4.73;;;4.20;;
665;SDS011;315;48.738;9.126;2023-04-03T03:05:03;4.53;;;4.03;;
665;SDS011;315;48.738;9.126;2023-04-03T03:07:29;5.17;;;3.93;;
665;SDS011;315;48.738;9.126;2023-04-03T03:09:55;3.97;;;3.57;;
665;SDS011;315;48.738;9.126;2023-04-03T03:12:20;4.60;;;4.20;;
665;SDS011;315;48.738;9.126;2023-04-03T03:14:47;3.77;;;3.47;;
665;SDS011;315;48.738;9.126;2023-04-03T03:17:13;4.00;;;3.63;;
665;SDS011;315;48.738;9.126;2023-04-03T03:19:38;5.77;;;3.20;;
665;SDS011;315;48.738;9.126;2023-04-03T03:22:04;3.90;;;3.60;;
665;SDS011;315;48.738;9.126;2023-04-03T03:24:29;4.17;;;3.77;;
665;SDS011;315;48.738;9.126;2023-04-03T03:26:55;3.93;;;3.63;;
665;SDS011;315;48.738;9.126;2023-04-03T03:29:20;3.83;;;3.53;;
665;SDS011;315;48.738;9.126;2023-04-03T03:31:46;5.07;;;3.80;;
665;SDS011;315;48.738;9.126;2023-04-03T03:34:12;4.00;;;3.60;;
665;SDS011;315;48.738;9.126;2023-04-03T03:36:37;4.20;;;3.90;;
665;SDS011;315;48.738;9.126;2023-04-03T03:39:03;5.43;;;3.83;;
665;SDS011;315;48.738;9.126;2023-04-03T03:41:29;3.47;;;3.20;;
665;SDS011;315;48.738;9.126;2023-04-03T03:43:54;6.90;;;3.67;;
665;SDS011;315;48.738;9.126;2023-04-03T03:46:20;3.83;;;3.50;;
665;SDS011;315;48.738;9.126;2023-04-03T03:48:45;3.30;;;2.93;;
665;SDS011;315;48.738;9.126;2023-04-03T03:51:11;5.50;;;4.10;;
665;SDS011;315;48.738;9.126;2023-04-03T03:53:36;3.37;;;3.07;;
665;SDS011;315;48.738;9.126;2023-04-03T03:56:03;5.03;;;3.67;;
665;SDS011;315;48.738;9.126;2023-04-03T03:58:29;4.83;;;4.33;;
665;SDS011;315;48.738;9.126;2023-04-03T04:00:55;3.73;;;3.50;;
665;SDS011;315;48.738;9.126;2023-04-03T04:03:20;3.93;;;3.63;;
665;SDS011;315;48.738;9.126;2023-04-03T04:05:46;6.10;;;3.70;;
665;SDS011;315;48.738;9.126;2023-04-03T04:08:12;3.70;;;3.40;;
665;SDS011;315;48.738;9.126;2023-04-03T04:10:37;5.20;;;3.47;;
665;SDS011;315;48.738;9.126;2023-04-03T04:13:03;4.47;;;3.53;;
665;SDS011;315;48.738;9.126;2023-04-03T04:15:29;3.87;;;3.57;;
665;SDS011;315;48.738;9.126;2023-04-03T04:17:55;3.93;;;3.53;;
665;SDS011;315;48.738;9.126;2023-04-03T04:20:21;3.67;;;3.37;;
665;SDS011;315;48.738;9.126;2023-04-03T04:22:47;3.37;;;3.17;;
665;SDS011;315;48.738;9.126;2023-04-03T04:25:13;5.57;;;4.10;;
665;SDS011;315;48.738;9.126;2023-04-03T04:27:38;4.80;;;4.30;;
665;SDS011;315;48.738;9.126;2023-04-03T04:30:04;6.87;;;5.03;;
665;SDS011;315;48.738;9.126;2023-04-03T04:32:31;4.47;;;4.07;;
665;SDS011;315;48.738;9.126;2023-04-03T04:34:56;4.20;;;3.80;;
665;SDS011;315;48.738;9.126;2023-04-03T04:37:22;4.43;;;4.03;;
665;SDS011;315;48.738;9.126;2023-04-03T04:39:47;4.40;;;4.00;;
665;SDS011;315;48.738;9.126;2023-04-03T04:42:13;8.27;;;6.80;;
665;SDS011;315;48.738;9.126;2023-04-03T04:44:39;6.43;;;5.83;;
665;SDS011;315;48.738;9.126;2023-04-03T04:47:04;4.53;;;4.13;;
665;SDS011;315;48.738;9.126;2023-04-03T04:49:30;5.73;;;3.60;;
665;SDS011;315;48.738;9.126;2023-04-03T04:51:55;5.57;;;3.73;;
665;SDS011;315;48.738;9.126;2023-04-03T04:54:21;6.33;;;4.30;;
665;SDS011;315;48.738;9.126;2023-04-03T04:56:46;3.90;;;3.60;;
665;SDS011;315;48.738;9.126;2023-04-03T04:59:12;4.90;;;3.30;;
665;SDS011;315;48.738;9.126;2023-04-03T05:01:38;3.97;;;3.67;;
665;SDS011;315;48.738;9.126;2023-04-03T05:04:03;3.77;;;3.00;;
665;SDS011;315;48.738;9.126;2023-04-03T05:06:29;4.53;;;4.13;;
665;SDS011;315;48.738;9.126;2023-04-03T05:08:56;3.67;;;3.37;;
665;SDS011;315;48.738;9.126;2023-04-03T05:11:22;4.23;;;2.73;;
665;SDS011;315;48.738;9.126;2023-04-03T05:13:48;3.47;;;3.17;;
665;SDS011;315;48.738;9.126;2023-04-03T05:16:13;4.40;;;3.30;;
665;SDS011;315;48.738;9.126;2023-04-03T05:18:39;3.27;;;2.97;;
665;SDS011;315;48.738;9.126;2023-04-03T05:21:04;5.30;;;3.20;;
665;SDS011;315;48.738;9.126;2023-04-03T05:23:30;3.60;;;3.30;;
665;SDS011;315;48.738;9.126;2023-04-03T05:25:55;3.30;;;2.57;;
665;SDS011;315;48.738;9.126;2023-04-03T05:28:21;3.37;;;3.07;;
665;SDS011;315;48.738;9.126;2023-04-03T05:30:52;3.10;;;2.77;;
665;SDS011;315;48.738;9.126;2023-04-03T05:33:22;3.20;;;3.00;;
665;SDS011;315;48.738;9.126;2023-04-03T05:35:48;3.70;;;3.40;;
665;SDS011;315;48.738;9.126;2023-04-03T05:38:14;4.07;;;3.70;;
665;SDS011;315;48.738;9.126;2023-04-03T05:40:40;3.20;;;2.90;;
665;SDS011;315;48.738;9.126;2023-04-03T05:43:05;5.07;;;3.33;;
665;SDS011;315;48.738;9.126;2023-04-03T05:45:31;4.10;;;3.50;;
665;SDS011;315;48.738;9.126;2023-04-03T05:47:56;5.10;;;3.70;;
665;SDS011;315;48.738;9.126;2023-04-03T05:50:22;3.53;;;3.23;;
665;SDS011;315;48.738;9.126;2023-04-03T05:52:48;4.00;;;3.70;;
665;SDS011;315;48.738;9.126;2023-04-03T05:55:15;6.83;;;3.20;;
665;SDS011;315;48.738;9.126;2023-04-03T05:57:41;8.27;;;3.73;;
665;SDS011;315;48.738;9.126;2023-04-03T06:00:07;3.90;;;3.60;;
665;SDS011;315;48.738;9.126;2023-04-03T06:02:37;3.90;;;3.60;;
665;SDS011;315;48.738;9.126;2023-04-03T06:05:03;3.47;;;3.17;;
665;SDS011;315;48.738;9.126;2023-04-03T06:07:29;4.67;;;4.10;;
665;SDS011;315;48.738;9.126;2023-04-03T06:09:55;3.73;;;3.33;;
665;SDS011;315;48.738;9.126;2023-04-03T06:12:22;4.10;;;3.70;;
665;SDS011;315;48.738;9.126;2023-04-03T06:14:48;3.57;;;3.23;;
665;SDS011;315;48.738;9.126;2023-04-03T06:17:14;4.07;;;3.67;;
665;SDS011;315;48.738;9.126;2023-04-03T06:19:41;3.70;;;3.40;;
665;SDS011;315;48.738;9.126;2023-04-03T06:22:07;3.70;;;3.40;;
665;SDS011;315;48.738;9.126;2023-04-03T06:24:32;4.13;;;3.07;;
665;SDS011;315;48.738;9.126;2023-04-03T06:26:58;3.47;;;3.10;;
665;SDS011;315;48.738;9.126;2023-04-03T06:29:24;4.80;;;3.50;;
665;SDS011;315;48.738;9.126;2023-04-03T06:31:50;3.73;;;3.43;;
665;SDS011;315;48.738;9.126;2023-04-03T06:34:15;3.40;;;3.10;;
665;SDS011;315;48.738;9.126;2023-04-03T06:36:41;2.93;;;2.73;;
665;SDS011;315;48.738;9.126;2023-04-03T06:39:08;3.63;;;3.33;;
665;SDS011;315;48.738;9.126;2023-04-03T06:41:39;5.10;;;3.47;;
665;SDS011;315;48.738;9.126;2023-04-03T06:44:05;5.77;;;3.47;;
665;SDS011;315;48.738;9.126;2023-04-03T06:46:30;4.60;;;3.00;;
665;SDS011;315;48.738;9.126;2023-04-03T06:48:56;2.83;;;2.63;;
665;SDS011;315;48.738;9.126;2023-04-03T06:51:25;4.30;;;3.90;;
665;SDS011;315;48.738;9.126;2023-04-03T06:53:53;3.80;;;3.50;;
665;SDS011;315;48.738;9.126;2023-04-03T06:56:20;4.80;;;3.67;;
665;SDS011;315;48.738;9.126;2023-04-03T06:58:46;3.93;;;3.50;;
665;SDS011;315;48.738;9.126;2023-04-03T07:01:12;4.60;;;4.00;;
665;SDS011;315;48.738;9.126;2023-04-03T07:03:39;3.87;;;3.53;;
665;SDS011;315;48.738;9.126;2023-04-03T07:06:06;4.30;;;2.63;;
665;SDS011;315;48.738;9.126;2023-04-03T07:08:33;3.97;;;3.63;;
665;SDS011;315;48.738;9.126;2023-04-03T07:10:58;6.17;;;3.77;;
665;SDS011;315;48.738;9.126;2023-04-03T07:13:24;4.50;;;4.10;;
665;SDS011;315;48.738;9.126;2023-04-03T07:15:51;3.50;;;3.20;;
665;SDS011;315;48.738;9.126;2023-04-03T07:18:17;5.40;;;3.90;;
665;SDS011;315;48.738;9.126;2023-04-03T07:20:43;4.23;;;3.83;;
665;SDS011;315;48.738;9.126;2023-04-03T07:23:09;4.20;;;3.63;;
665;SDS011;315;48.738;9.126;2023-04-03T07:25:35;5.00;;;3.33;;
665;SDS011;315;48.738;9.126;2023-04-03T07:28:01;5.07;;;4.27;;
665;SDS011;315;48.738;9.126;2023-04-03T07:30:27;9.77;;;4.63;;
665;SDS011;315;48.738;9.126;2023-04-03T07:32:52;3.60;;;3.30;;
665;SDS011;315;48.738;9.126;2023-04-03T07:35:18;3.83;;;3.43;;
665;SDS011;315;48.738;9.126;2023-04-03T07:37:43;3.80;;;3.50;;
665;SDS011;315;48.738;9.126;2023-04-03T07:40:09;4.90;;;3.43;;
665;SDS011;315;48.738;9.126;2023-04-03T07:42:35;3.67;;;3.37;;
665;SDS011;315;48.738;9.126;2023-04-03T07:45:02;3.20;;;3.00;;
665;SDS011;315;48.738;9.126;2023-04-03T07:47:29;4.13;;;3.73;;
665;SDS011;315;48.738;9.126;2023-04-03T07:49:55;3.73;;;3.33;;
665;SDS011;315;48.738;9.126;2023-04-03T07:52:22;3.87;;;3.50;;
665;SDS011;315;48.738;9.126;2023-04-03T07:54:48;6.80;;;3.67;;
665;SDS011;315;48.738;9.126;2023-04-03T07:57:13;3.77;;;3.30;;
665;SDS011;315;48.738;9.126;2023-04-03T07:59:39;6.63;;;4.00;;
665;SDS011;315;48.738;9.126;2023-04-03T08:02:07;5.90;;;4.50;;
665;SDS011;315;48.738;9.126;2023-04-03T08:04:36;5.27;;;4.00;;
665;SDS011;315;48.738;9.126;2023-04-03T08:07:02;4.30;;;3.60;;
665;SDS011;315;48.738;9.126;2023-04-03T08:09:27;5.73;;;3.70;;
665;SDS011;315;48.738;9.126;2023-04-03T08:11:53;6.70;;;4.70;;
665;SDS011;315;48.738;9.126;2023-04-03T08:14:19;4.43;;;4.03;;
665;SDS011;315;48.738;9.126;2023-04-03T08:16:45;6.23;;;3.73;;
665;SDS011;315;48.738;9.126;2023-04-03T08:19:12;3.70;;;3.40;;
665;SDS011;315;48.738;9.126;2023-04-03T08:21:39;5.47;;;3.93;;
665;SDS011;315;48.738;9.126;2023-04-03T08:24:06;6.93;;;3.57;;
665;SDS011;315;48.738;9.126;2023-04-03T08:26:32;4.03;;;3.60;;
665;SDS011;315;48.738;9.126;2023-04-03T08:28:57;5.40;;;3.50;;
665;SDS011;315;48.738;9.126;2023-04-03T08:31:23;3.57;;;3.27;;
665;SDS011;315;48.738;9.126;2023-04-03T08:33:49;4.90;;;3.90;;
665;SDS011;315;48.738;9.126;2023-04-03T08:36:19;3.90;;;3.60;;
665;SDS011;315;48.738;9.126;2023-04-03T08:38:52;5.73;;;3.30;;
665;SDS011;315;48.738;9.126;2023-04-03T08:44:02;4.83;;;4.23;;
665;SDS011;315;48.738;9.126;2023-04-03T08:47:01;6.30;;;4.50;;
665;SDS011;315;48.738;9.126;2023-04-03T08:49:35;4.53;;;4.13;;
665;SDS011;315;48.738;9.126;2023-04-03T08:52:04;6.20;;;4.10;;
665;SDS011;315;48.738;9.126;2023-04-03T08:54:37;3.83;;;3.53;;
665;SDS011;315;48.738;9.126;2023-04-03T08:57:22;4.50;;;4.17;;
665;SDS011;315;48.738;9.126;2023-04-03T09:00:00;6.70;;;3.70;;
665;SDS011;315;48.738;9.126;2023-04-03T09:02:32;4.10;;;3.70;;
665;SDS011;315;48.738;9.126;2023-04-03T09:05:15;5.80;;;3.40;;
665;SDS011;315;48.738;9.126;2023-04-03T09:07:47;3.83;;;3.53;;
665;SDS011;315;48.738;9.126;2023-04-03T09:10:20;4.20;;;3.80;;
665;SDS011;315;48.738;9.126;2023-04-03T09:15:41;3.60;;;3.30;;
665;SDS011;315;48.738;9.126;2023-04-03T09:18:16;4.93;;;3.57;;
665;SDS011;315;48.738;9.126;2023-04-03T09:23:51;3.87;;;3.47;;
665;SDS011;315;48.738;9.126;2023-04-03T09:28:54;4.20;;;3.10;;
665;SDS011;315;48.738;9.126;2023-04-03T09:31:26;3.90;;;3.60;;
665;SDS011;315;48.738;9.126;2023-04-03T09:33:55;3.63;;;3.07;;
665;SDS011;315;48.738;9.126;2023-04-03T09:36:37;3.90;;;3.57;;
665;SDS011;315;48.738;9.126;2023-04-03T09:39:12;4.73;;;3.60;;
665;SDS011;315;48.738;9.126;2023-04-03T09:41:44;4.20;;;3.50;;
665;SDS011;315;48.738;9.126;2023-04-03T09:44:24;3.77;;;3.47;;
665;SDS011;315;48.738;9.126;2023-04-03T09:46:51;3.30;;;3.00;;
665;SDS011;315;48.738;9.126;2023-04-03T09:49:17;8.20;;;3.90;;
665;SDS011;315;48.738;9.126;2023-04-03T09:51:44;4.03;;;3.50;;
665;SDS011;315;48.738;9.126;2023-04-03T09:54:30;3.10;;;2.73;;
665;SDS011;315;48.738;9.126;2023-04-03T09:57:07;4.97;;;4.47;;
665;SDS011;315;48.738;9.126;2023-04-03T09:59:58;6.00;;;3.50;;
665;SDS011;315;48.738;9.126;2023-04-03T10:04:54;3.40;;;3.20;;
665;SDS011;315;48.738;9.126;2023-04-03T10:07:34;5.40;;;3.23;;
665;SDS011;315;48.738;9.126;2023-04-03T10:10:10;4.20;;;3.10;;
665;SDS011;315;48.738;9.126;2023-04-03T10:12:43;3.83;;;3.20;;
665;SDS011;315;48.738;9.126;2023-04-03T10:15:16;2.87;;;2.60;;
665;SDS011;315;48.738;9.126;2023-04-03T10:17:51;3.37;;;3.07;;
665;SDS011;315;48.738;9.126;2023-04-03T10:20:26;4.07;;;2.90;;
665;SDS011;315;48.738;9.126;2023-04-03T10:26:14;4.20;;;3.60;;
665;SDS011;315;48.738;9.126;2023-04-03T10:32:26;5.50;;;2.90;;
665;SDS011;315;48.738;9.126;2023-04-03T10:34:42;5.40;;;2.77;;
665;SDS011;315;48.738;9.126;2023-04-03T10:37:23;5.03;;;3.83;;
665;SDS011;315;48.738;9.126;2023-04-03T10:39:59;3.30;;;3.00;;
665;SDS011;315;48.738;9.126;2023-04-03T10:45:41;3.50;;;3.20;;
665;SDS011;315;48.738;9.126;2023-04-03T10:48:28;3.87;;;3.33;;
665;SDS011;315;48.738;9.126;2023-04-03T10:54:05;3.30;;;3.00;;
665;SDS011;315;48.738;9.126;2023-04-03T10:56:37;3.80;;;3.50;;
665;SDS011;315;48.738;9.126;2023-04-03T11:02:02;4.20;;;3.40;;
665;SDS011;315;48.738;9.126;2023-04-03T11:04:39;3.70;;;2.90;;
665;SDS011;315;48.738;9.126;2023-04-03T11:07:14;4.40;;;3.20;;
665;SDS011;315;48.738;9.126;2023-04-03T11:09:41;3.77;;;3.33;;
665;SDS011;315;48.738;9.126;2023-04-03T11:12:15;3.60;;;3.30;;
665;SDS011;315;48.738;9.126;2023-04-03T11:14:53;4.20;;;2.97;;
665;SDS011;315;48.738;9.126;2023-04-03T11:17:35;5.40;;;3.10;;
665;SDS011;315;48.738;9.126;2023-04-03T11:22:53;3.60;;;2.90;;
665;SDS011;315;48.738;9.126;2023-04-03T11:25:24;5.30;;;2.90;;
665;SDS011;315;48.738;9.126;2023-04-03T11:27:57;2.80;;;2.43;;
665;SDS011;315;48.738;9.126;2023-04-03T11:35:59;3.60;;;2.17;;
665;SDS011;315;48.738;9.126;2023-04-03T11:38:36;3.17;;;2.30;;
665;SDS011;315;48.738;9.126;2023-04-03T11:41:06;2.80;;;2.60;;
665;SDS011;315;48.738;9.126;2023-04-03T11:43:33;4.37;;;2.10;;
665;SDS011;315;48.738;9.126;2023-04-03T11:46:05;2.90;;;2.60;;
665;SDS011;315;48.738;9.126;2023-04-03T11:53:38;4.17;;;3.13;;
665;SDS011;315;48.738;9.126;2023-04-03T12:04:22;2.83;;;2.53;;
665;SDS011;315;48.738;9.126;2023-04-03T12:12:22;4.03;;;2.20;;
665;SDS011;315;48.738;9.126;2023-04-03T12:17:46;3.33;;;3.00;;
665;SDS011;315;48.738;9.126;2023-04-03T12:26:05;3.40;;;2.47;;
665;SDS011;315;48.738;9.126;2023-04-03T12:28:44;2.33;;;2.10;;
665;SDS011;315;48.738;9.126;2023-04-03T12:31:11;5.50;;;2.93;;
665;SDS011;315;48.738;9.126;2023-04-03T12:36:46;3.63;;;2.20;;
665;SDS011;315;48.738;9.126;2023-04-03T12:39:31;2.90;;;2.20;;
665;SDS011;315;48.738;9.126;2023-04-03T12:44:46;5.13;;;3.17;;
665;SDS011;315;48.738;9.126;2023-04-03T12:47:25;2.97;;;2.50;;
665;SDS011;315;48.738;9.126;2023-04-03T12:49:54;2.43;;;2.23;;
665;SDS011;315;48.738;9.126;2023-04-03T12:55:14;4.70;;;2.70;;
665;SDS011;315;48.738;9.126;2023-04-03T12:57:45;3.17;;;2.30;;
665;SDS011;315;48.738;9.126;2023-04-03T13:02:54;3.83;;;2.63;;
665;SDS011;315;48.738;9.126;2023-04-03T13:05:20;3.00;;;2.70;;
665;SDS011;315;48.738;9.126;2023-04-03T13:08:20;2.87;;;2.33;;
665;SDS011;315;48.738;9.126;2023-04-03T13:10:47;2.90;;;2.40;;
665;SDS011;315;48.738;9.126;2023-04-03T13:13:17;3.63;;;2.77;;
665;SDS011;315;48.738;9.126;2023-04-03T13:15:44;3.27;;;3.03;;
665;SDS011;315;48.738;9.126;2023-04-03T13:18:27;3.77;;;2.50;;
665;SDS011;315;48.738;9.126;2023-04-03T13:20:53;4.30;;;2.57;;
665;SDS011;315;48.738;9.126;2023-04-03T13:23:21;3.70;;;2.50;;
665;SDS011;315;48.738;9.126;2023-04-03T13:25:48;4.20;;;3.13;;
665;SDS011;315;48.738;9.126;2023-04-03T13:28:20;3.37;;;3.07;;
665;SDS011;315;48.738;9.126;2023-04-03T13:30:54;4.57;;;2.60;;
665;SDS011;315;48.738;9.126;2023-04-03T13:33:24;3.90;;;3.30;;
665;SDS011;315;48.738;9.126;2023-04-03T13:35:57;3.00;;;2.70;;
665;SDS011;315;48.738;9.126;2023-04-03T13:38:28;5.83;;;2.63;;
665;SDS011;315;48.738;9.126;2023-04-03T13:40:59;2.50;;;2.30;;
665;SDS011;315;48.738;9.126;2023-04-03T13:43:28;2.73;;;2.53;;
665;SDS011;315;48.738;9.126;2023-04-03T13:46:01;3.30;;;3.00;;
665;SDS011;315;48.738;9.126;2023-04-03T13:48:50;2.73;;;2.53;;
665;SDS011;315;48.738;9.126;2023-04-03T13:51:18;2.80;;;2.50;;
665;SDS011;315;48.738;9.126;2023-04-03T13:53:45;7.57;;;3.00;;
665;SDS011;315;48.738;9.126;2023-04-03T13:56:17;2.80;;;2.60;;
665;SDS011;315;48.738;9.126;2023-04-03T13:58:52;5.17;;;2.47;;
665;SDS011;315;48.738;9.126;2023-04-03T14:01:23;3.60;;;2.97;;
665;SDS011;315;48.738;9.126;2023-04-03T14:03:54;5.70;;;2.37;;
665;SDS011;315;48.738;9.126;2023-04-03T14:06:24;2.70;;;2.50;;
665;SDS011;315;48.738;9.126;2023-04-03T14:08:50;3.00;;;2.80;;
665;SDS011;315;48.738;9.126;2023-04-03T14:11:35;2.53;;;2.33;;
665;SDS011;315;48.738;9.126;2023-04-03T14:14:01;5.80;;;3.20;;
665;SDS011;315;48.738;9.126;2023-04-03T14:16:32;5.77;;;2.47;;
665;SDS011;315;48.738;9.126;2023-04-03T14:19:02;2.77;;;2.57;;
665;SDS011;315;48.738;9.126;2023-04-03T14:21:28;2.90;;;2.70;;
665;SDS011;315;48.738;9.126;2023-04-03T14:23:54;2.90;;;2.70;;
665;SDS011;315;48.738;9.126;2023-04-03T14:26:20;3.00;;;2.70;;
665;SDS011;315;48.738;9.126;2023-04-03T14:28:48;6.53;;;3.10;;
665;SDS011;315;48.738;9.126;2023-04-03T14:31:16;3.90;;;3.50;;
665;SDS011;315;48.738;9.126;2023-04-03T14:33:42;3.50;;;3.20;;
665;SDS011;315;48.738;9.126;2023-04-03T14:36:13;6.43;;;3.80;;
665;SDS011;315;48.738;9.126;2023-04-03T14:38:42;3.20;;;2.60;;
665;SDS011;315;48.738;9.126;2023-04-03T14:41:10;6.17;;;3.37;;
665;SDS011;315;48.738;9.126;2023-04-03T14:43:37;4.20;;;2.90;;
665;SDS011;315;48.738;9.126;2023-04-03T14:46:03;4.87;;;3.30;;
665;SDS011;315;48.738;9.126;2023-04-03T14:48:29;4.40;;;3.27;;
665;SDS011;315;48.738;9.126;2023-04-03T14:50:56;2.73;;;2.47;;
665;SDS011;315;48.738;9.126;2023-04-03T14:53:21;3.20;;;2.30;;
665;SDS011;315;48.738;9.126;2023-04-03T14:55:49;3.03;;;2.80;;
665;SDS011;315;48.738;9.126;2023-04-03T14:58:16;2.30;;;2.10;;
665;SDS011;315;48.738;9.126;2023-04-03T15:00:43;4.77;;;2.87;;
665;SDS011;315;48.738;9.126;2023-04-03T15:03:12;2.77;;;2.43;;
665;SDS011;315;48.738;9.126;2023-04-03T15:05:40;4.87;;;2.90;;
665;SDS011;315;48.738;9.126;2023-04-03T15:08:08;6.20;;;3.07;;
665;SDS011;315;48.738;9.126;2023-04-03T15:10:42;3.27;;;2.97;;
665;SDS011;315;48.738;9.126;2023-04-03T15:13:08;3.23;;;3.03;;
665;SDS011;315;48.738;9.126;2023-04-03T15:15:36;3.17;;;2.40;;
665;SDS011;315;48.738;9.126;2023-04-03T15:18:02;7.10;;;2.57;;
665;SDS011;315;48.738;9.126;2023-04-03T15:20:28;2.50;;;2.30;;
665;SDS011;315;48.738;9.126;2023-04-03T15:22:55;4.10;;;2.70;;
665;SDS011;315;48.738;9.126;2023-04-03T15:25:21;2.83;;;2.50;;
665;SDS011;315;48.738;9.126;2023-04-03T15:27:48;3.07;;;2.50;;
665;SDS011;315;48.738;9.126;2023-04-03T15:30:15;2.93;;;2.33;;
665;SDS011;315;48.738;9.126;2023-04-03T15:32:43;3.40;;;2.87;;
665;SDS011;315;48.738;9.126;2023-04-03T15:35:08;6.30;;;2.27;;
665;SDS011;315;48.738;9.126;2023-04-03T15:37:34;2.87;;;2.50;;
665;SDS011;315;48.738;9.126;2023-04-03T15:40:00;4.77;;;3.17;;
665;SDS011;315;48.738;9.126;2023-04-03T15:42:26;3.83;;;2.67;;
665;SDS011;315;48.738;9.126;2023-04-03T15:44:51;6.23;;;2.60;;
665;SDS011;315;48.738;9.126;2023-04-03T15:47:17;2.90;;;2.43;;
665;SDS011;315;48.738;9.126;2023-04-03T15:49:42;3.63;;;2.70;;
665;SDS011;315;48.738;9.126;2023-04-03T15:52:08;4.60;;;3.40;;
665;SDS011;315;48.738;9.126;2023-04-03T15:54:34;5.90;;;2.90;;
665;SDS011;315;48.738;9.126;2023-04-03T15:57:00;4.03;;;3.23;;
665;SDS011;315;48.738;9.126;2023-04-03T15:59:25;2.67;;;2.47;;
665;SDS011;315;48.738;9.126;2023-04-03T16:01:51;4.80;;;3.30;;
665;SDS011;315;48.738;9.126;2023-04-03T16:04:17;2.97;;;2.63;;
665;SDS011;315;48.738;9.126;2023-04-03T16:06:43;3.50;;;2.60;;
665;SDS011;315;48.738;9.126;2023-04-03T16:09:09;3.33;;;3.07;;
665;SDS011;315;48.738;9.126;2023-04-03T16:11:35;5.80;;;3.10;;
665;SDS011;315;48.738;9.126;2023-04-03T16:14:03;3.50;;;3.20;;
665;SDS011;315;48.738;9.126;2023-04-03T16:16:29;3.57;;;2.70;;
665;SDS011;315;48.738;9.126;2023-04-03T16:18:55;6.83;;;2.97;;
665;SDS011;315;48.738;9.126;2023-04-03T16:21:21;2.10;;;2.00;;
665;SDS011;315;48.738;9.126;2023-04-03T16:23:47;2.80;;;2.60;;
665;SDS011;315;48.738;9.126;2023-04-03T16:26:13;3.00;;;2.73;;
665;SDS011;315;48.738;9.126;2023-04-03T16:28:39;2.80;;;2.33;;
665;SDS011;315;48.738;9.126;2023-04-03T16:31:05;2.97;;;2.67;;
665;SDS011;315;48.738;9.126;2023-04-03T16:33:32;3.23;;;2.40;;
665;SDS011;315;48.738;9.126;2023-04-03T16:35:57;2.23;;;2.10;;
665;SDS011;315;48.738;9.126;2023-04-03T16:38:24;3.40;;;3.00;;
665;SDS011;315;48.738;9.126;2023-04-03T16:40:50;3.00;;;2.80;;
665;SDS011;315;48.738;9.126;2023-04-03T16:43:17;3.00;;;2.27;;
665;SDS011;315;48.738;9.126;2023-04-03T16:45:42;3.30;;;2.97;;
665;SDS011;315;48.738;9.126;2023-04-03T16:48:08;2.83;;;2.40;;
665;SDS011;315;48.738;9.126;2023-04-03T16:50:33;2.87;;;2.60;;
665;SDS011;315;48.738;9.126;2023-04-03T16:52:59;4.03;;;2.37;;
665;SDS011;315;48.738;9.126;2023-04-03T16:55:25;5.70;;;3.10;;
665;SDS011;315;48.738;9.126;2023-04-03T16:57:50;6.50;;;2.40;;
665;SDS011;315;48.738;9.126;2023-04-03T17:00:16;3.23;;;2.70;;
665;SDS011;315;48.738;9.126;2023-04-03T17:02:41;5.03;;;2.63;;
665;SDS011;315;48.738;9.126;2023-04-03T17:05:07;5.00;;;2.67;;
665;SDS011;315;48.738;9.126;2023-04-03T17:07:33;4.90;;;3.00;;
665;SDS011;315;48.738;9.126;2023-04-03T17:09:59;7.17;;;3.63;;
665;SDS011;315;48.738;9.126;2023-04-03T17:12:25;4.03;;;2.80;;